Time;durP1;ratioP1;P1;durP2;ratioP2;P2;SDS_P1;SDS_P2;PMS_P1;PMS_P2;Temp;Humidity;BMP_temperature;BMP_pressure;BME280_temperature;BME280_humidity;BME280_pressure;Samples;Min_cycle;Max_cycle;Signal;HPM_P1;HPM_P2
2022/01/14 00:00:54;;;;;;;0.40;0.30;;;;;;;16.34;60.41;100386.38;3155098;28;20036;-49
2022/01/14 00:02:26;;;;;;;0.77;0.50;;;;;;;16.33;60.36;100396.25;3155463;28;20051;-52
2022/01/14 00:03:58;;;;;;;0.80;0.30;;;;;;;16.33;60.42;100392.72;3152966;28;20101;-53
2022/01/14 00:05:30;;;;;;;0.75;0.40;;;;;;;16.31;60.21;100396.38;3154317;28;20050;-49
2022/01/14 00:07:02;;;;;;;0.47;0.32;;;;;;;16.30;60.40;100399.22;3153949;28;20048;-50
2022/01/14 00:08:34;;;;;;;0.55;0.38;;;;;;;16.27;60.41;100397.69;3154924;28;20070;-54
2022/01/14 00:10:08;;;;;;;1.10;0.60;;;;;;;16.26;60.45;100403.16;3154352;28;20059;-50
2022/01/14 00:11:41;;;;;;;0.50;0.50;;;;;;;16.25;60.40;100398.81;3152051;28;20044;-60
2022/01/14 00:13:37;;;;;;;0.38;0.30;;;;;;;16.23;60.35;100403.44;3154441;28;20047;-49
2022/01/14 00:15:23;;;;;;;0.52;0.52;;;;;;;16.23;60.52;100404.28;3153706;28;20044;-53
2022/01/14 00:16:57;;;;;;;0.57;0.50;;;;;;;16.20;60.41;100403.75;3153524;28;20056;-49
2022/01/14 00:18:28;;;;;;;0.40;0.40;;;;;;;16.20;60.40;100404.59;3154400;28;20383;-49
2022/01/14 00:20:00;;;;;;;0.85;0.50;;;;;;;16.17;60.46;100399.53;3151214;28;20056;-50
2022/01/14 00:21:33;;;;;;;1.75;0.55;;;;;;;16.13;60.51;100403.50;3154886;28;20055;-51
2022/01/14 00:23:06;;;;;;;0.60;0.30;;;;;;;16.12;60.47;100406.28;3153344;28;20050;-50
2022/01/14 00:32:19;;;;;;;0.38;0.38;;;;;;;16.04;60.55;100396.31;3153903;28;20135;-51
2022/01/14 00:33:51;;;;;;;0.40;0.40;;;;;;;16.01;60.71;100389.41;3153363;28;20047;-52
2022/01/14 00:35:23;;;;;;;0.80;0.50;;;;;;;16.01;60.61;100393.91;3153494;28;20086;-51
2022/01/14 00:36:55;;;;;;;0.45;0.28;;;;;;;16.00;60.64;100389.56;3153293;28;20036;-52
2022/01/14 00:38:27;;;;;;;0.80;0.65;;;;;;;15.98;60.69;100389.69;3153871;28;20055;-53
2022/01/14 00:39:58;;;;;;;0.75;0.50;;;;;;;15.96;60.81;100391.66;3154132;28;20052;-51
2022/01/14 00:41:30;;;;;;;0.40;0.35;;;;;;;15.94;60.83;100385.63;3154946;28;20048;-53
2022/01/14 00:43:02;;;;;;;2.67;0.70;;;;;;;15.94;60.80;100384.78;3147046;28;20535;-51
2022/01/14 00:44:34;;;;;;;0.40;0.30;;;;;;;15.91;60.75;100380.56;3153839;28;20097;-53
2022/01/14 00:46:06;;;;;;;0.50;0.50;;;;;;;15.88;60.83;100382.66;3154522;28;20101;-49
2022/01/14 00:47:40;;;;;;;1.00;0.40;;;;;;;15.86;60.69;100391.69;3154011;28;20848;-52
2022/01/14 00:49:12;;;;;;;0.68;0.47;;;;;;;15.84;60.99;100388.31;3153800;28;20044;-51
2022/01/14 00:50:44;;;;;;;0.73;0.52;;;;;;;15.85;60.76;100386.47;3152873;28;20044;-52
2022/01/14 00:52:16;;;;;;;1.27;0.80;;;;;;;15.80;60.98;100397.63;3153997;28;20097;-52
2022/01/14 00:53:48;;;;;;;0.70;0.40;;;;;;;15.79;61.06;100382.53;3154598;28;20055;-52
2022/01/14 00:55:27;;;;;;;0.65;0.50;;;;;;;15.77;61.06;100389.88;3153142;28;20044;-51
2022/01/14 00:57:14;;;;;;;0.60;0.43;;;;;;;15.76;60.92;100395.38;3154904;28;20063;-52
2022/01/14 01:00:35;;;;;;;0.50;0.47;;;;;;;15.71;61.00;100393.13;3149227;28;20044;-53
2022/01/14 01:02:08;;;;;;;0.60;0.40;;;;;;;15.69;60.95;100389.75;3153937;28;20101;-48
2022/01/14 01:03:41;;;;;;;0.43;0.30;;;;;;;15.68;60.98;100393.38;3154137;28;20695;-48
2022/01/14 01:05:13;;;;;;;0.40;0.40;;;;;;;15.66;61.15;100392.69;3151046;28;20410;-51
2022/01/14 01:06:46;;;;;;;0.77;0.55;;;;;;;15.67;61.22;100394.34;3154384;28;20061;-49
2022/01/14 01:08:23;;;;;;;0.32;0.32;;;;;;;15.63;61.19;100392.97;3154120;28;20112;-50
2022/01/14 01:09:54;;;;;;;0.50;0.35;;;;;;;15.61;61.11;100392.25;3153650;28;20495;-51
2022/01/14 01:11:31;;;;;;;1.05;0.43;;;;;;;15.59;61.10;100383.50;3153869;28;20044;-51
2022/01/14 01:13:10;;;;;;;0.57;0.45;;;;;;;15.57;61.16;100391.69;3153036;28;20659;-54
2022/01/14 01:14:48;;;;;;;0.90;0.50;;;;;;;15.57;61.10;100389.03;3151098;28;20052;-51
2022/01/14 01:16:18;;;;;;;0.60;0.50;;;;;;;15.55;61.28;100387.47;3150081;28;20048;-51
2022/01/14 01:17:50;;;;;;;0.50;0.43;;;;;;;15.53;61.19;100392.94;3152402;28;20123;-50
2022/01/14 01:19:24;;;;;;;1.00;0.60;;;;;;;15.52;61.35;100388.59;3153524;28;20040;-52
2022/01/14 01:20:56;;;;;;;0.30;0.30;;;;;;;15.48;61.37;100392.53;3153898;28;20047;-52
2022/01/14 01:22:28;;;;;;;0.40;0.40;;;;;;;15.48;61.30;100391.69;3153885;28;20051;-53
2022/01/14 01:24:00;;;;;;;0.77;0.63;;;;;;;15.46;61.37;100393.66;3152748;28;20051;-54
2022/01/14 01:25:38;;;;;;;0.52;0.40;;;;;;;15.44;61.34;100385.78;3154086;28;20047;-50
2022/01/14 01:27:10;;;;;;;0.45;0.45;;;;;;;15.46;61.26;100390.97;3148938;28;20070;-52
2022/01/14 01:28:56;;;;;;;0.95;0.57;;;;;;;15.42;61.23;100383.22;3153653;28;20070;-48
2022/01/14 01:30:49;;;;;;;0.63;0.45;;;;;;;15.41;61.45;100388.75;3153800;28;20043;-50
2022/01/14 01:32:21;;;;;;;0.63;0.60;;;;;;;15.39;61.76;100385.34;3154610;28;20046;-51
2022/01/14 01:33:53;;;;;;;0.45;0.30;;;;;;;15.37;61.45;100395.34;3153795;28;20051;-52
2022/01/14 01:35:27;;;;;;;0.30;0.30;;;;;;;15.37;61.38;100406.03;3152576;28;20048;-53
2022/01/14 01:36:59;;;;;;;0.63;0.40;;;;;;;15.36;61.44;100397.16;3153243;28;20056;-53
2022/01/14 01:38:31;;;;;;;0.43;0.40;;;;;;;15.36;61.40;100399.00;3154412;28;20040;-50
2022/01/14 01:40:04;;;;;;;0.82;0.50;;;;;;;15.33;61.44;100400.13;3153859;28;20050;-54
2022/01/14 01:41:38;;;;;;;0.52;0.45;;;;;;;15.33;61.49;100396.59;3153880;28;20569;-49
2022/01/14 01:43:11;;;;;;;0.35;0.35;;;;;;;15.30;61.39;100394.22;3154950;28;20048;-51
2022/01/14 01:44:44;;;;;;;0.50;0.40;;;;;;;15.27;61.55;100402.53;3149505;28;20086;-53
2022/01/14 01:46:15;;;;;;;0.40;0.40;;;;;;;15.26;61.47;100404.31;3155484;28;20671;-51
2022/01/14 01:47:50;;;;;;;0.73;0.50;;;;;;;15.24;61.55;100398.28;3156157;28;20044;-51
2022/01/14 01:49:24;;;;;;;0.75;0.50;;;;;;;15.25;61.51;100404.47;3157576;28;20060;-53
2022/01/14 01:50:58;;;;;;;0.50;0.50;;;;;;;15.24;61.46;100403.63;3155532;28;20048;-50
2022/01/14 01:52:30;;;;;;;0.45;0.38;;;;;;;15.22;61.50;100402.94;3155337;28;20056;-52
2022/01/14 01:54:03;;;;;;;0.70;0.60;;;;;;;15.18;61.74;100393.47;3156839;28;20109;-48
2022/01/14 01:55:35;;;;;;;0.57;0.38;;;;;;;15.19;61.42;100403.19;3157083;28;20036;-50
2022/01/14 01:57:07;;;;;;;0.65;0.47;;;;;;;15.18;61.50;100402.38;3156424;28;20051;-53
2022/01/14 01:58:39;;;;;;;1.02;0.38;;;;;;;15.15;61.56;100402.63;3155336;28;20044;-50
2022/01/14 02:00:14;;;;;;;0.40;0.30;;;;;;;15.14;61.56;100395.59;3155869;28;20044;-51
2022/01/14 02:01:47;;;;;;;0.57;0.45;;;;;;;15.13;61.68;100387.72;3150915;28;20039;-49
2022/01/14 02:03:19;;;;;;;0.55;0.45;;;;;;;15.10;61.58;100385.31;3156243;28;20048;-52
2022/01/14 02:04:50;;;;;;;1.10;0.50;;;;;;;15.08;61.74;100382.78;3153480;28;20048;-50
2022/01/14 02:06:24;;;;;;;0.63;0.43;;;;;;;15.07;61.69;100378.44;3156516;28;20058;-52
2022/01/14 02:07:56;;;;;;;0.40;0.40;;;;;;;15.06;61.69;100374.06;3156867;28;20047;-48
2022/01/14 02:09:28;;;;;;;0.30;0.30;;;;;;;15.05;61.59;100372.38;3155354;28;20421;-51
2022/01/14 02:11:00;;;;;;;0.40;0.40;;;;;;;15.04;61.80;100372.50;3156941;28;20044;-49
2022/01/14 02:12:37;;;;;;;0.50;0.32;;;;;;;15.03;61.73;100370.81;3151484;28;20078;-52
2022/01/14 02:14:25;;;;;;;0.40;0.30;;;;;;;15.01;61.65;100368.28;3155186;28;20509;-50
2022/01/14 02:18:13;;;;;;;0.70;0.47;;;;;;;15.00;61.77;100365.75;3152239;28;20040;-50
2022/01/14 02:23:41;;;;;;;0.43;0.43;;;;;;;14.93;61.82;100368.97;3155703;28;20036;-51
2022/01/14 02:25:15;;;;;;;0.40;0.40;;;;;;;14.92;61.86;100369.09;3155410;28;20583;-50
2022/01/14 02:26:49;;;;;;;1.58;0.50;;;;;;;14.92;61.87;100374.44;3155752;28;20054;-51
2022/01/14 02:28:21;;;;;;;0.77;0.38;;;;;;;14.90;61.87;100379.06;3156872;28;20585;-50
2022/01/14 02:29:53;;;;;;;0.63;0.50;;;;;;;14.89;61.77;100372.91;3156101;28;20058;-51
2022/01/14 02:31:25;;;;;;;0.75;0.30;;;;;;;14.86;61.72;100373.16;3154557;28;20041;-52
2022/01/14 02:32:57;;;;;;;0.47;0.40;;;;;;;14.86;61.80;100380.34;3156830;28;20055;-50
2022/01/14 02:34:30;;;;;;;0.70;0.70;;;;;;;14.83;61.97;100380.63;3156472;28;20048;-53
2022/01/14 02:36:04;;;;;;;0.85;0.40;;;;;;;14.83;61.93;100375.28;3154640;28;20578;-53
2022/01/14 02:37:37;;;;;;;1.27;0.40;;;;;;;14.82;61.85;100371.78;3154670;28;20058;-50
2022/01/14 02:39:09;;;;;;;0.85;0.50;;;;;;;14.81;62.03;100374.56;3156288;28;20569;-51
2022/01/14 02:40:42;;;;;;;0.40;0.40;;;;;;;14.80;61.97;100364.88;3154015;28;20040;-51
2022/01/14 02:42:14;;;;;;;1.75;0.50;;;;;;;14.79;61.93;100361.34;3155085;28;20040;-50
2022/01/14 02:43:46;;;;;;;0.45;0.45;;;;;;;14.79;61.88;100360.50;3156300;28;20429;-52
2022/01/14 02:45:19;;;;;;;0.47;0.47;;;;;;;14.78;61.91;100356.97;3155985;28;20097;-52
2022/01/14 02:46:55;;;;;;;2.58;0.40;;;;;;;14.81;61.81;100355.88;3155460;28;20044;-48
2022/01/14 02:48:28;;;;;;;0.20;0.20;;;;;;;14.81;61.79;100361.22;3155888;28;20497;-49
2022/01/14 02:50:00;;;;;;;0.95;0.60;;;;;;;14.84;61.95;100352.91;3154087;28;20052;-52
2022/01/14 02:51:34;;;;;;;0.65;0.43;;;;;;;14.87;61.72;100356.16;3156120;28;20048;-51
2022/01/14 02:53:14;;;;;;;0.50;0.38;;;;;;;14.88;61.71;100347.16;3155651;28;20054;-50
2022/01/14 02:55:02;;;;;;;0.50;0.32;;;;;;;14.90;61.78;100345.19;3155021;28;20094;-53
2022/01/14 02:56:34;;;;;;;0.60;0.45;;;;;;;14.93;61.81;100339.59;3154227;28;20395;-52
2022/01/14 02:58:07;;;;;;;0.45;0.40;;;;;;;14.96;61.69;100343.81;3154982;28;20048;-53
2022/01/14 02:59:40;;;;;;;0.40;0.40;;;;;;;14.97;61.54;100343.66;3154929;28;20073;-53
2022/01/14 03:01:15;;;;;;;0.95;0.60;;;;;;;14.97;61.47;100341.00;3153579;28;20051;-50
2022/01/14 03:02:49;;;;;;;0.75;0.63;;;;;;;14.96;61.52;100339.31;3156018;28;20046;-52
2022/01/14 03:04:22;;;;;;;0.38;0.38;;;;;;;14.97;61.59;100324.97;3156163;28;20056;-52
2022/01/14 03:05:55;;;;;;;0.30;0.30;;;;;;;14.98;61.50;100331.16;3155300;28;20048;-50
2022/01/14 03:07:28;;;;;;;0.68;0.57;;;;;;;14.98;61.49;100334.66;3155033;28;20410;-51
2022/01/14 03:09:00;;;;;;;0.90;0.40;;;;;;;14.99;61.49;100335.53;3153885;28;20040;-48
2022/01/14 03:10:32;;;;;;;0.80;0.60;;;;;;;14.99;61.48;100327.50;3156035;28;20494;-52
2022/01/14 03:12:05;;;;;;;1.05;0.47;;;;;;;15.00;61.67;100336.38;3155212;28;20052;-48
2022/01/14 03:13:37;;;;;;;0.57;0.40;;;;;;;15.00;61.55;100331.03;3155986;28;20048;-47
2022/01/14 03:15:10;;;;;;;0.68;0.47;;;;;;;14.98;61.48;100331.97;3155212;28;20055;-53
2022/01/14 03:16:44;;;;;;;0.85;0.30;;;;;;;14.98;61.68;100328.47;3155280;28;20631;-51
2022/01/14 03:18:23;;;;;;;0.40;0.38;;;;;;;14.99;61.54;100316.81;3154906;28;20059;-48
2022/01/14 03:19:54;;;;;;;0.77;0.52;;;;;;;14.99;61.49;100319.50;3155156;28;20068;-50
2022/01/14 03:21:28;;;;;;;0.68;0.40;;;;;;;15.00;61.45;100323.84;3156124;28;20494;-52
2022/01/14 03:23:06;;;;;;;0.35;0.35;;;;;;;14.98;61.61;100320.47;3154875;28;20476;-50
2022/01/14 03:26:27;;;;;;;0.40;0.38;;;;;;;14.97;61.48;100324.97;3155872;28;20071;-51
2022/01/14 03:27:58;;;;;;;0.40;0.30;;;;;;;14.97;61.60;100324.97;3151614;28;20052;-51
2022/01/14 03:29:30;;;;;;;0.68;0.50;;;;;;;14.96;61.48;100323.28;3150221;28;20051;-52
2022/01/14 03:31:02;;;;;;;0.52;0.30;;;;;;;14.95;61.49;100321.56;3156292;28;20044;-50
2022/01/14 03:32:34;;;;;;;0.95;0.50;;;;;;;14.96;61.54;100322.44;3155780;28;20048;-50
2022/01/14 03:34:07;;;;;;;0.30;0.30;;;;;;;14.94;61.61;100314.56;3155091;28;20102;-52
2022/01/14 03:35:39;;;;;;;0.57;0.50;;;;;;;14.96;61.47;100317.94;3155529;28;20051;-52
2022/01/14 03:37:11;;;;;;;1.15;0.60;;;;;;;14.94;61.46;100308.38;3153527;28;20044;-50
2022/01/14 03:38:44;;;;;;;0.70;0.40;;;;;;;14.96;61.32;100311.75;3154781;28;20101;-51
2022/01/14 03:40:16;;;;;;;0.40;0.40;;;;;;;14.94;61.67;100313.72;3155038;28;20047;-52
2022/01/14 03:41:49;;;;;;;0.32;0.32;;;;;;;14.93;61.46;100312.88;3155045;28;20055;-49
2022/01/14 03:43:21;;;;;;;0.65;0.50;;;;;;;14.92;61.39;100311.16;3156100;28;20063;-53
2022/01/14 03:44:53;;;;;;;0.40;0.30;;;;;;;14.92;61.46;100308.50;3154639;28;20044;-49
2022/01/14 03:46:25;;;;;;;0.52;0.40;;;;;;;14.90;61.60;100302.44;3148360;28;20445;-50
2022/01/14 03:47:56;;;;;;;0.40;0.32;;;;;;;14.91;61.45;100297.97;3155607;28;20052;-48
2022/01/14 03:49:28;;;;;;;0.93;0.77;;;;;;;14.89;61.48;100286.56;3156089;28;20066;-53
2022/01/14 03:51:00;;;;;;;1.05;0.50;;;;;;;14.88;61.66;100288.41;3154911;28;20804;-50
2022/01/14 03:52:32;;;;;;;0.68;0.38;;;;;;;14.88;61.35;100282.22;3155590;28;20040;-50
2022/01/14 03:54:06;;;;;;;0.50;0.30;;;;;;;14.87;61.41;100286.69;3153899;28;20093;-55
2022/01/14 03:55:39;;;;;;;0.45;0.30;;;;;;;14.87;61.52;100283.19;3156017;28;20093;-51
2022/01/14 03:57:11;;;;;;;1.58;0.40;;;;;;;14.85;61.56;100286.00;3155409;28;20146;-51
2022/01/14 03:58:42;;;;;;;0.90;0.43;;;;;;;14.83;61.56;100285.28;3154992;28;20039;-51
2022/01/14 04:00:15;;;;;;;0.52;0.30;;;;;;;14.84;61.65;100283.47;3153979;28;20048;-49
2022/01/14 04:01:47;;;;;;;0.45;0.30;;;;;;;14.83;61.51;100287.13;3154391;28;20043;-51
2022/01/14 04:03:19;;;;;;;0.77;0.43;;;;;;;14.82;61.59;100288.97;3156369;28;20398;-50
2022/01/14 04:04:51;;;;;;;0.50;0.38;;;;;;;14.81;61.57;100287.25;3150587;28;20044;-54
2022/01/14 04:06:23;;;;;;;0.45;0.30;;;;;;;14.79;61.49;100283.88;3153285;28;20425;-53
2022/01/14 04:07:55;;;;;;;0.50;0.30;;;;;;;14.80;61.50;100280.22;3153316;28;20498;-48
2022/01/14 04:09:29;;;;;;;0.20;0.20;;;;;;;14.78;61.45;100282.19;3153940;28;20040;-51
2022/01/14 04:11:03;;;;;;;0.30;0.30;;;;;;;14.78;61.44;100281.34;3155073;28;22876;-53
2022/01/14 04:12:45;;;;;;;0.75;0.38;;;;;;;14.77;61.61;100287.69;3155710;28;20058;-49
2022/01/14 04:16:07;;;;;;;0.52;0.45;;;;;;;14.74;61.65;100276.28;3153859;28;20065;-50
2022/01/14 04:17:38;;;;;;;1.10;0.60;;;;;;;14.74;61.67;100280.78;3156355;28;20099;-53
2022/01/14 04:19:10;;;;;;;0.43;0.20;;;;;;;14.73;61.67;100273.75;3153168;28;20108;-51
2022/01/14 04:20:41;;;;;;;;;;;;;;;14.72;61.50;100277.41;3155112;28;20298;-59
2022/01/14 04:22:13;;;;;;;1.25;0.47;;;;;;;14.70;61.65;100279.38;3154830;28;19928;-50
2022/01/14 04:23:45;;;;;;;0.52;0.50;;;;;;;14.70;61.61;100280.19;3154994;28;20396;-50
2022/01/14 04:25:19;;;;;;;0.40;0.38;;;;;;;14.70;61.53;100276.69;3153899;28;20051;-53
2022/01/14 04:26:50;;;;;;;0.60;0.55;;;;;;;14.70;61.43;100284.72;3153708;28;20048;-50
2022/01/14 04:28:23;;;;;;;0.28;0.28;;;;;;;14.67;61.59;100277.81;3153869;28;20434;-49
2022/01/14 04:29:55;;;;;;;0.68;0.50;;;;;;;14.68;61.64;100275.97;3154707;28;20066;-51
2022/01/14 04:31:27;;;;;;;0.38;0.28;;;;;;;14.67;61.68;100274.31;3154720;28;20057;-52
2022/01/14 04:32:59;;;;;;;0.70;0.43;;;;;;;14.65;61.49;100276.25;3154754;28;20052;-50
2022/01/14 04:34:31;;;;;;;0.73;0.50;;;;;;;14.64;61.90;100274.59;3155472;28;20051;-52
2022/01/14 04:36:04;;;;;;;0.65;0.38;;;;;;;14.61;61.66;100269.53;3155084;28;20044;-50
2022/01/14 04:37:36;;;;;;;0.43;0.40;;;;;;;14.60;61.87;100270.47;3153131;28;20048;-49
2022/01/14 04:39:08;;;;;;;0.20;0.20;;;;;;;14.61;61.56;100269.53;3153142;28;20048;-49
2022/01/14 04:40:41;;;;;;;0.60;0.60;;;;;;;14.58;61.72;100264.47;3154616;28;20052;-49
2022/01/14 04:42:13;;;;;;;0.63;0.50;;;;;;;14.58;61.84;100261.78;3154883;28;20048;-51
2022/01/14 04:43:45;;;;;;;0.40;0.40;;;;;;;14.58;61.68;100261.78;3155497;28;20101;-50
2022/01/14 04:45:29;;;;;;;0.63;0.32;;;;;;;14.56;61.72;100256.56;3153400;28;20044;-52
2022/01/14 04:47:14;;;;;;;0.43;0.38;;;;;;;14.55;61.84;100260.22;3153116;28;20079;-50
2022/01/14 04:48:45;;;;;;;0.28;0.22;;;;;;;14.55;61.70;100260.22;3154478;28;20050;-49
2022/01/14 04:50:19;;;;;;;0.70;0.55;;;;;;;14.53;61.93;100256.84;3154736;28;20051;-52
2022/01/14 04:51:51;;;;;;;0.40;0.40;;;;;;;14.52;61.86;100261.34;3155010;28;20048;-50
2022/01/14 04:53:23;;;;;;;0.93;0.50;;;;;;;14.50;61.76;100251.75;3155250;28;20101;-51
2022/01/14 04:54:55;;;;;;;0.43;0.35;;;;;;;14.48;61.80;100262.56;3152900;28;20051;-53
2022/01/14 04:56:29;;;;;;;0.40;0.30;;;;;;;14.49;61.74;100250.09;3153163;28;20096;-52
2022/01/14 04:58:00;;;;;;;0.65;0.45;;;;;;;14.48;61.81;100253.72;3154178;28;20055;-48
2022/01/14 04:59:32;;;;;;;0.40;0.40;;;;;;;14.47;61.79;100250.19;3154721;28;20048;-49
2022/01/14 05:01:04;;;;;;;0.68;0.28;;;;;;;14.48;61.80;100249.22;3154275;28;20048;-48
2022/01/14 05:02:37;;;;;;;0.70;0.50;;;;;;;14.46;61.92;100261.88;3153866;28;20048;-52
2022/01/14 05:04:09;;;;;;;0.22;0.22;;;;;;;14.44;61.84;100250.47;3152805;28;20043;-49
2022/01/14 05:05:44;;;;;;;0.65;0.32;;;;;;;14.43;61.73;100256.81;3154354;28;20051;-51
2022/01/14 05:07:24;;;;;;;1.08;0.50;;;;;;;14.43;61.93;100254.16;3154427;28;20036;-54
2022/01/14 05:08:56;;;;;;;0.55;0.55;;;;;;;14.45;61.76;100254.81;3153694;28;20047;-50
2022/01/14 05:10:48;;;;;;;0.55;0.35;;;;;;;14.47;61.81;100260.03;3153346;28;20071;-51
2022/01/14 05:12:21;;;;;;;0.80;0.40;;;;;;;14.55;61.64;100251.38;3154285;28;20475;-50
2022/01/14 05:13:53;;;;;;;0.30;0.30;;;;;;;14.63;61.80;100248.88;3155049;28;20092;-53
2022/01/14 05:15:25;;;;;;;0.43;0.43;;;;;;;14.70;61.52;100242.81;3153925;28;20548;-53
2022/01/14 05:16:57;;;;;;;0.57;0.38;;;;;;;14.79;61.40;100250.97;3153185;28;20055;-51
2022/01/14 05:18:30;;;;;;;0.32;0.32;;;;;;;14.85;61.47;100245.06;3154651;28;20064;-48
2022/01/14 05:20:02;;;;;;;0.60;0.47;;;;;;;14.93;61.35;100253.22;3153726;28;20675;-51
2022/01/14 05:21:34;;;;;;;0.93;0.80;;;;;;;15.00;61.20;100249.03;3148331;28;20047;-50
2022/01/14 05:23:06;;;;;;;0.70;0.63;;;;;;;15.05;61.32;100241.44;3152519;28;20052;-49
2022/01/14 05:24:38;;;;;;;0.32;0.32;;;;;;;15.11;61.16;100238.19;3153883;28;20610;-53
2022/01/14 05:26:11;;;;;;;0.30;0.30;;;;;;;15.18;61.07;100241.13;3153365;28;20410;-48
2022/01/14 05:27:44;;;;;;;0.22;0.22;;;;;;;15.25;60.93;100241.41;3154584;28;20036;-51
2022/01/14 05:29:16;;;;;;;1.48;0.60;;;;;;;15.29;60.78;100235.63;3154502;28;20044;-49
2022/01/14 05:30:48;;;;;;;0.30;0.30;;;;;;;15.35;60.91;100235.06;3152214;28;20592;-47
2022/01/14 05:32:21;;;;;;;0.30;0.30;;;;;;;15.41;60.92;100237.16;3153659;28;20079;-49
2022/01/14 05:33:53;;;;;;;0.73;0.40;;;;;;;15.46;60.74;100233.19;3155088;28;20048;-52
2022/01/14 05:35:28;;;;;;;0.55;0.30;;;;;;;15.50;60.56;100229.28;3153762;28;20040;-49
2022/01/14 05:37:01;;;;;;;0.50;0.45;;;;;;;15.56;60.70;100231.38;3154955;28;20051;-50
2022/01/14 05:38:33;;;;;;;0.63;0.30;;;;;;;15.59;60.46;100218.53;3153979;28;20097;-50
2022/01/14 05:40:06;;;;;;;0.50;0.50;;;;;;;15.63;60.31;100217.28;3153362;28;20044;-54
2022/01/14 05:41:39;;;;;;;0.40;0.40;;;;;;;15.68;60.43;100215.97;3153754;28;20113;-51
2022/01/14 05:43:12;;;;;;;0.57;0.30;;;;;;;15.71;60.30;100213.91;3153593;28;20044;-50
2022/01/14 05:44:44;;;;;;;0.63;0.50;;;;;;;15.74;60.26;100210.94;3153453;28;20044;-52
2022/01/14 05:46:16;;;;;;;0.22;0.22;;;;;;;15.79;60.27;100218.50;3153697;28;20040;-52
2022/01/14 05:47:48;;;;;;;0.57;0.40;;;;;;;15.82;60.19;100208.38;3153182;28;20106;-51
2022/01/14 05:49:20;;;;;;;0.25;0.25;;;;;;;15.85;60.10;100208.06;3154169;28;20533;-51
2022/01/14 05:50:51;;;;;;;0.20;0.20;;;;;;;15.90;60.23;100210.28;3154369;28;20490;-50
2022/01/14 05:52:23;;;;;;;0.40;0.25;;;;;;;15.94;60.13;100214.38;3154125;28;20040;-49
2022/01/14 05:53:56;;;;;;;0.30;0.22;;;;;;;15.98;60.09;100209.56;3154414;28;20047;-50
2022/01/14 05:55:28;;;;;;;0.43;0.38;;;;;;;16.00;60.03;100211.09;3154526;28;20072;-52
2022/01/14 05:57:00;;;;;;;0.75;0.57;;;;;;;16.03;59.85;100210.78;3153269;28;20048;-49
2022/01/14 05:58:33;;;;;;;0.60;0.60;;;;;;;16.05;59.96;100210.66;3154540;28;20656;-48
2022/01/14 06:00:06;;;;;;;0.30;0.20;;;;;;;16.07;59.91;100212.19;3154279;28;20043;-51
2022/01/14 06:01:38;;;;;;;0.38;0.30;;;;;;;16.09;59.81;100206.69;3155112;28;20055;-51
2022/01/14 06:03:10;;;;;;;0.20;0.20;;;;;;;16.10;59.79;100205.69;3151771;28;20069;-48
2022/01/14 06:04:43;;;;;;;0.60;0.40;;;;;;;16.13;59.75;100196.50;3151326;28;20071;-54
2022/01/14 06:06:14;;;;;;;0.40;0.40;;;;;;;16.14;59.93;100200.88;3153683;28;20068;-49
2022/01/14 06:07:47;;;;;;;0.50;0.50;;;;;;;16.16;59.82;100201.56;3153700;28;20047;-50
2022/01/14 06:09:19;;;;;;;0.40;0.40;;;;;;;16.17;59.78;100201.44;3155438;28;20478;-52
2022/01/14 06:10:50;;;;;;;1.42;0.40;;;;;;;16.17;59.58;100196.06;3154898;28;20036;-48
2022/01/14 06:12:22;;;;;;;0.60;0.40;;;;;;;16.18;59.70;100192.38;3155134;28;20067;-52
2022/01/14 06:13:56;;;;;;;0.30;0.20;;;;;;;16.20;59.73;100189.56;3153380;28;20044;-50
2022/01/14 06:15:28;;;;;;;0.43;0.30;;;;;;;16.20;59.68;100185.06;3153238;28;20051;-52
2022/01/14 06:17:00;;;;;;;0.30;0.30;;;;;;;16.21;59.58;100181.38;3154151;28;20059;-49
2022/01/14 06:18:31;;;;;;;0.40;0.15;;;;;;;16.21;59.52;100181.38;3154643;28;20422;-49
2022/01/14 06:20:04;;;;;;;0.28;0.25;;;;;;;16.22;59.65;100183.09;3152775;28;20055;-50
2022/01/14 06:21:36;;;;;;;0.65;0.30;;;;;;;16.23;59.64;100179.41;3152213;28;20055;-51
2022/01/14 06:23:08;;;;;;;0.45;0.45;;;;;;;16.22;59.66;100187.59;3153616;28;20044;-56
2022/01/14 06:24:40;;;;;;;0.20;0.20;;;;;;;16.21;59.57;100186.72;3154133;28;20043;-50
2022/01/14 06:26:11;;;;;;;0.43;0.40;;;;;;;16.22;59.74;100183.09;3153663;28;20056;-49
2022/01/14 06:27:43;;;;;;;0.30;0.30;;;;;;;16.22;59.58;100187.59;3153290;28;20080;-51
2022/01/14 06:29:17;;;;;;;0.40;0.20;;;;;;;16.21;59.54;100184.06;3154242;28;20517;-54
2022/01/14 06:30:49;;;;;;;0.20;0.20;;;;;;;16.22;59.48;100188.44;3152006;28;20044;-49
2022/01/14 06:32:20;;;;;;;1.63;0.73;;;;;;;16.21;59.57;100191.25;3156486;28;20072;-48
2022/01/14 06:33:52;;;;;;;0.52;0.30;;;;;;;16.20;59.67;100187.75;3154011;28;20055;-51
2022/01/14 06:35:24;;;;;;;0.52;0.35;;;;;;;16.20;59.59;100193.09;3148100;28;20060;-51
2022/01/14 06:36:56;;;;;;;0.32;0.30;;;;;;;16.19;59.63;100188.75;3150412;28;20564;-49
2022/01/14 06:38:28;;;;;;;0.47;0.35;;;;;;;16.19;59.59;100187.91;3153657;28;20052;-49
2022/01/14 06:40:00;;;;;;;0.45;0.20;;;;;;;16.19;59.50;100186.06;3153872;28;20044;-51
2022/01/14 06:41:32;;;;;;;0.20;0.20;;;;;;;16.19;59.56;100183.38;3153844;28;20040;-54
2022/01/14 06:43:05;;;;;;;0.45;0.45;;;;;;;16.19;59.61;100183.38;3154119;28;20052;-50
2022/01/14 06:44:39;;;;;;;0.30;0.30;;;;;;;16.18;59.67;100181.69;3153673;28;20509;-53
2022/01/14 06:46:10;;;;;;;0.35;0.30;;;;;;;16.19;59.47;100178.03;3149239;28;20060;-50
2022/01/14 06:47:42;;;;;;;0.40;0.30;;;;;;;16.19;59.49;100180.72;3152803;28;20052;-58
2022/01/14 06:49:14;;;;;;;0.22;0.22;;;;;;;16.21;59.57;100180.53;3154297;28;20040;-51
2022/01/14 06:50:46;;;;;;;0.65;0.30;;;;;;;16.23;59.73;100175.88;3153071;28;20055;-53
2022/01/14 06:52:18;;;;;;;0.38;0.25;;;;;;;16.22;59.57;100176.88;3152962;28;20063;-53
2022/01/14 06:53:51;;;;;;;0.63;0.30;;;;;;;16.23;59.46;100176.72;3152435;28;20430;-54
2022/01/14 06:55:22;;;;;;;0.55;0.40;;;;;;;16.23;59.65;100176.72;3151645;28;20045;-51
2022/01/14 06:56:54;;;;;;;0.20;0.20;;;;;;;16.24;59.52;100183.78;3154216;28;20048;-55
2022/01/14 06:58:26;;;;;;;0.43;0.38;;;;;;;16.25;59.45;100181.94;3156344;28;20040;-50
2022/01/14 06:59:59;;;;;;;0.77;0.55;;;;;;;16.24;59.54;100178.44;3154775;28;20489;-51
2022/01/14 07:01:31;;;;;;;0.52;0.43;;;;;;;16.24;59.48;100183.78;3154372;28;20402;-51
2022/01/14 07:03:03;;;;;;;0.35;0.20;;;;;;;16.23;59.47;100187.44;3154390;28;20048;-53
2022/01/14 07:04:35;;;;;;;0.32;0.32;;;;;;;16.24;59.50;100189.13;3154407;28;20051;-50
2022/01/14 07:06:07;;;;;;;0.28;0.22;;;;;;;16.23;59.61;100189.28;3154106;28;21204;-52
2022/01/14 07:07:39;;;;;;;0.22;0.22;;;;;;;16.23;59.52;100189.28;3152910;28;20047;-54
2022/01/14 07:09:11;;;;;;;0.28;0.25;;;;;;;16.21;59.58;100181.38;3155302;28;20093;-54
2022/01/14 07:10:43;;;;;;;0.22;0.22;;;;;;;16.21;59.56;100185.91;3155987;28;20658;-52
2022/01/14 07:12:15;;;;;;;0.52;0.30;;;;;;;16.22;59.58;100183.09;3150611;28;20044;-52
2022/01/14 07:13:47;;;;;;;0.47;0.17;;;;;;;16.21;59.49;100186.72;3156147;28;20422;-50
2022/01/14 07:15:21;;;;;;;0.63;0.30;;;;;;;16.21;59.58;100186.72;3156319;28;20047;-48
2022/01/14 07:16:53;;;;;;;0.25;0.25;;;;;;;16.20;59.52;100190.41;3155872;28;20056;-52
2022/01/14 07:18:25;;;;;;;0.45;0.40;;;;;;;16.19;59.42;100190.59;3157222;28;20048;-50
2022/01/14 07:20:01;;;;;;;0.43;0.20;;;;;;;16.20;59.59;100200.28;3155990;28;20055;-53
2022/01/14 07:21:34;;;;;;;0.45;0.30;;;;;;;16.19;59.48;100198.63;3154860;28;20071;-50
2022/01/14 07:23:06;;;;;;;0.25;0.25;;;;;;;16.18;59.66;100195.06;3148126;28;20059;-52
2022/01/14 07:24:38;;;;;;;0.63;0.30;;;;;;;16.18;59.53;100195.06;3146906;28;20117;-52
2022/01/14 07:26:10;;;;;;;0.43;0.40;;;;;;;16.19;59.51;100198.63;3150458;28;20044;-52
2022/01/14 07:27:42;;;;;;;0.40;0.20;;;;;;;16.18;59.55;100203.09;3150652;28;20939;-54
2022/01/14 07:29:14;;;;;;;0.52;0.52;;;;;;;16.19;59.53;100194.09;3151236;28;20044;-53
2022/01/14 07:30:47;;;;;;;0.35;0.30;;;;;;;16.20;59.58;100195.75;3150680;28;20079;-54
2022/01/14 07:32:19;;;;;;;0.30;0.20;;;;;;;16.22;59.47;100193.78;3153845;28;20401;-55